createdAt,value
2019-02-11T00:00:04.897Z,958.25
2019-02-11T00:01:04.996Z,958.47
2019-02-11T00:02:04.535Z,958.36
2019-02-11T00:03:04.785Z,958.30
2019-02-11T00:04:04.923Z,958.33
2019-02-11T00:05:05.190Z,958.33
2019-02-11T00:06:05.280Z,958.50
2019-02-11T00:07:04.899Z,958.45
2019-02-11T00:08:04.876Z,958.61
2019-02-11T00:09:05.157Z,958.53
2019-02-11T00:10:05.007Z,958.53
2019-02-11T00:11:04.598Z,958.73
2019-02-11T00:12:05.394Z,958.67
2019-02-11T00:13:11.080Z,958.59
2019-02-11T00:14:04.781Z,958.79
2019-02-11T00:15:05.017Z,958.79
2019-02-11T00:16:05.104Z,958.73
2019-02-11T00:17:04.738Z,958.84
2019-02-11T00:18:05.330Z,958.93
2019-02-11T00:19:04.633Z,958.84
2019-02-11T00:20:04.922Z,958.73
2019-02-11T00:21:05.058Z,958.79
2019-02-11T00:22:05.449Z,958.96
2019-02-11T00:23:04.909Z,958.76
2019-02-11T00:24:04.892Z,958.82
2019-02-11T00:25:05.141Z,958.79
2019-02-11T00:26:04.451Z,958.91
2019-02-11T00:27:04.730Z,958.96
2019-02-11T00:28:04.618Z,958.94
2019-02-11T00:29:10.333Z,959.13
2019-02-11T00:30:04.826Z,958.94
2019-02-11T00:31:04.844Z,959.18
2019-02-11T00:32:05.005Z,959.02
2019-02-11T00:33:05.081Z,959.08
2019-02-11T00:34:05.078Z,959.11
2019-02-11T00:35:05.368Z,959.16
2019-02-11T00:36:05.423Z,959.05
2019-02-11T00:37:04.469Z,959.16
2019-02-11T00:38:04.756Z,959.08
2019-02-11T00:39:05.034Z,959.21
2019-02-11T00:40:05.333Z,959.18
2019-02-11T00:41:05.517Z,959.14
2019-02-11T00:42:04.587Z,959.38
2019-02-11T00:43:05.274Z,959.33
2019-02-11T00:44:04.461Z,959.22
2019-02-11T00:45:04.962Z,959.22
2019-02-11T00:46:05.184Z,959.33
2019-02-11T00:47:05.484Z,959.39
2019-02-11T00:48:04.590Z,959.39
2019-02-11T00:49:04.682Z,959.31
2019-02-11T00:50:05.000Z,959.42
2019-02-11T00:51:05.156Z,959.45
2019-02-11T00:52:04.639Z,959.42
2019-02-11T00:53:05.171Z,959.56
2019-02-11T00:54:05.240Z,959.42
2019-02-11T00:55:05.367Z,959.54
2019-02-11T00:56:05.387Z,959.65
2019-02-11T00:57:05.010Z,959.70
2019-02-11T00:58:05.311Z,959.72
2019-02-11T00:59:05.470Z,959.73
2019-02-11T01:00:04.827Z,959.62
2019-02-11T01:01:04.852Z,959.73
2019-02-11T01:02:05.452Z,959.65
2019-02-11T01:03:04.648Z,959.79
2019-02-11T01:04:04.587Z,959.76
2019-02-11T01:05:04.948Z,959.76
2019-02-11T01:06:04.890Z,959.87
2019-02-11T01:07:05.169Z,959.82
2019-02-11T01:08:04.689Z,959.76
2019-02-11T01:09:04.782Z,959.88
2019-02-11T01:10:04.909Z,959.93
2019-02-11T01:11:05.358Z,959.93
2019-02-11T01:12:05.304Z,959.82
2019-02-11T01:13:05.374Z,959.96
2019-02-11T01:14:04.761Z,960.05
2019-02-11T01:15:05.026Z,960.08
2019-02-11T01:16:04.971Z,960.14
2019-02-11T01:17:04.775Z,960.16
2019-02-11T01:18:05.132Z,960.17
2019-02-11T01:19:04.860Z,960.00
2019-02-11T01:20:05.020Z,960.20
2019-02-11T01:21:05.234Z,960.14
2019-02-11T01:22:04.917Z,960.23
2019-02-11T01:23:05.296Z,960.31
2019-02-11T01:24:04.724Z,960.31
2019-02-11T01:25:04.990Z,960.34
2019-02-11T01:26:04.861Z,960.46
2019-02-11T01:27:04.517Z,960.37
2019-02-11T01:28:04.799Z,960.54
2019-02-11T01:29:10.685Z,960.40
2019-02-11T01:30:05.031Z,960.52
2019-02-11T01:31:05.453Z,960.41
2019-02-11T01:32:05.627Z,960.55
2019-02-11T01:33:04.695Z,960.49
2019-02-11T01:34:04.634Z,960.52
2019-02-11T01:35:04.792Z,960.50
2019-02-11T01:36:04.843Z,960.58
2019-02-11T01:37:04.512Z,960.50
2019-02-11T01:38:04.791Z,960.58
2019-02-11T01:39:05.201Z,960.64
2019-02-11T01:40:04.896Z,960.73
2019-02-11T01:41:04.976Z,960.83
2019-02-11T01:42:05.169Z,960.80
2019-02-11T01:43:05.220Z,960.76
2019-02-11T01:44:04.672Z,960.78
2019-02-11T01:45:04.760Z,960.95
2019-02-11T01:46:05.086Z,960.86
2019-02-11T01:47:05.027Z,960.87
2019-02-11T01:48:05.246Z,961.04
2019-02-11T01:49:05.512Z,961.18
2019-02-11T01:50:04.596Z,961.04
2019-02-11T01:51:09.866Z,961.07
2019-02-11T01:52:05.350Z,961.01
2019-02-11T01:53:05.330Z,961.35
2019-02-11T01:54:04.865Z,961.13
2019-02-11T01:55:05.138Z,961.30
2019-02-11T01:56:05.367Z,961.24
2019-02-11T01:57:05.310Z,961.30
2019-02-11T01:58:04.952Z,961.24
2019-02-11T01:59:05.386Z,961.30
2019-02-11T02:00:05.545Z,961.33
2019-02-11T02:01:05.048Z,961.36
2019-02-11T02:02:05.399Z,961.47
2019-02-11T02:03:05.381Z,961.56
2019-02-11T02:04:05.190Z,961.53
2019-02-11T02:05:05.222Z,961.36
2019-02-11T02:06:04.530Z,961.31
2019-02-11T02:07:04.639Z,961.56
2019-02-11T02:08:04.988Z,961.53
2019-02-11T02:09:05.343Z,961.51
2019-02-11T02:10:05.120Z,961.51
2019-02-11T02:11:05.378Z,961.51
2019-02-11T02:12:04.628Z,961.73
2019-02-11T02:13:04.671Z,961.82
2019-02-11T02:14:04.967Z,961.79
2019-02-11T02:15:05.024Z,961.59
2019-02-11T02:16:04.956Z,961.76
2019-02-11T02:17:04.741Z,961.68
2019-02-11T02:18:05.527Z,961.68
2019-02-11T02:19:04.598Z,961.88
2019-02-11T02:20:04.611Z,961.74
2019-02-11T02:21:04.928Z,961.88
2019-02-11T02:22:05.266Z,961.82
2019-02-11T02:23:05.231Z,961.85
2019-02-11T02:24:04.730Z,961.80
2019-02-11T02:25:05.526Z,961.80
2019-02-11T02:26:04.594Z,961.94
2019-02-11T02:27:04.640Z,961.82
2019-02-11T02:28:04.757Z,961.80
2019-02-11T02:29:09.874Z,961.83
2019-02-11T02:30:05.492Z,961.83
2019-02-11T02:31:04.832Z,961.94
2019-02-11T02:32:05.012Z,962.00
2019-02-11T02:33:04.697Z,961.94
2019-02-11T02:34:04.754Z,961.92
2019-02-11T02:35:05.086Z,961.89
2019-02-11T02:36:05.497Z,961.80
2019-02-11T02:37:04.957Z,961.92
2019-02-11T02:38:04.739Z,961.92
2019-02-11T02:39:04.772Z,961.92
2019-02-11T02:40:05.015Z,961.89
2019-02-11T02:41:05.219Z,961.92
2019-02-11T02:42:04.868Z,961.97
2019-02-11T02:43:04.919Z,962.06
2019-02-11T02:44:04.557Z,962.06
2019-02-11T02:45:04.921Z,962.30
2019-02-11T02:46:05.464Z,962.06
2019-02-11T02:47:04.866Z,962.06
2019-02-11T02:48:05.378Z,962.15
2019-02-11T02:49:04.762Z,962.17
2019-02-11T02:50:05.085Z,962.22
2019-02-11T02:51:04.972Z,962.33
2019-02-11T02:52:04.468Z,962.33
2019-02-11T02:53:04.557Z,962.33
2019-02-11T02:54:04.902Z,962.37
2019-02-11T02:55:05.501Z,962.45
2019-02-11T02:56:04.612Z,962.28
2019-02-11T02:57:04.998Z,962.39
2019-02-11T02:58:05.452Z,962.39
2019-02-11T02:59:09.615Z,962.48
2019-02-11T03:00:04.976Z,962.42
2019-02-11T03:01:05.286Z,962.61
2019-02-11T03:02:04.918Z,962.50
2019-02-11T03:03:05.151Z,962.64
2019-02-11T03:04:05.435Z,962.64
2019-02-11T03:05:04.772Z,962.89
2019-02-11T03:06:05.334Z,962.70
2019-02-11T03:07:04.760Z,962.78
2019-02-11T03:08:04.743Z,962.79
2019-02-11T03:09:04.885Z,962.79
2019-02-11T03:10:04.983Z,962.93
2019-02-11T03:11:05.127Z,962.93
2019-02-11T03:12:05.251Z,962.93
2019-02-11T03:13:05.243Z,962.82
2019-02-11T03:14:06.639Z,962.96
2019-02-11T03:15:05.481Z,963.04
2019-02-11T03:16:04.475Z,963.02
2019-02-11T03:17:05.229Z,963.05
2019-02-11T03:18:05.270Z,963.13
2019-02-11T03:19:05.562Z,963.25
2019-02-11T03:20:04.637Z,963.08
2019-02-11T03:21:04.928Z,963.11
2019-02-11T03:22:04.860Z,963.05
2019-02-11T03:23:05.199Z,963.28
2019-02-11T03:24:05.209Z,963.39
2019-02-11T03:25:04.486Z,963.23
2019-02-11T03:26:04.648Z,963.20
2019-02-11T03:27:04.735Z,963.31
2019-02-11T03:28:04.908Z,963.31
2019-02-11T03:29:10.459Z,963.37
2019-02-11T03:30:04.812Z,963.37
2019-02-11T03:31:05.083Z,963.48
2019-02-11T03:32:05.426Z,963.46
2019-02-11T03:33:04.795Z,963.43
2019-02-11T03:34:05.085Z,963.57
2019-02-11T03:35:05.185Z,963.60
2019-02-11T03:36:05.429Z,963.52
2019-02-11T03:37:04.861Z,963.51
2019-02-11T03:38:04.981Z,963.57
2019-02-11T03:39:04.963Z,963.68
2019-02-11T03:40:05.175Z,963.74
2019-02-11T03:41:04.765Z,963.77
2019-02-11T03:42:05.191Z,963.69
2019-02-11T03:43:05.355Z,963.71
2019-02-11T03:44:05.102Z,963.80
2019-02-11T03:45:05.083Z,963.85
2019-02-11T03:46:05.169Z,963.85
2019-02-11T03:47:05.225Z,963.90
2019-02-11T03:48:04.551Z,963.88
2019-02-11T03:49:05.167Z,963.96
2019-02-11T03:50:04.800Z,963.96
2019-02-11T03:51:05.444Z,963.93
2019-02-11T03:52:04.601Z,963.96
2019-02-11T03:53:05.261Z,963.85
2019-02-11T03:54:05.536Z,963.93
2019-02-11T03:55:04.867Z,963.90
2019-02-11T03:56:05.134Z,963.90
2019-02-11T03:57:05.333Z,964.01
2019-02-11T03:58:05.341Z,963.96
2019-02-11T03:59:04.923Z,964.13
2019-02-11T04:00:05.401Z,964.15
2019-02-11T04:01:04.557Z,964.13
2019-02-11T04:02:05.026Z,964.07
2019-02-11T04:03:04.434Z,964.07
2019-02-11T04:04:04.711Z,964.15
2019-02-11T04:05:04.937Z,964.24
2019-02-11T04:06:05.146Z,964.18
2019-02-11T04:07:05.247Z,964.35
2019-02-11T04:08:05.320Z,964.26
2019-02-11T04:09:05.391Z,964.27
2019-02-11T04:10:04.930Z,964.40
2019-02-11T04:11:05.115Z,964.46
2019-02-11T04:12:04.547Z,964.35
2019-02-11T04:13:04.760Z,964.41
2019-02-11T04:14:05.275Z,964.49
2019-02-11T04:15:04.775Z,964.46
2019-02-11T04:16:05.315Z,964.46
2019-02-11T04:17:04.557Z,964.52
2019-02-11T04:18:05.004Z,964.63
2019-02-11T04:19:05.520Z,964.43
2019-02-11T04:20:04.609Z,964.52
2019-02-11T04:21:05.396Z,964.49
2019-02-11T04:22:05.559Z,964.66
2019-02-11T04:23:04.607Z,964.55
2019-02-11T04:24:05.365Z,964.58
2019-02-11T04:25:05.161Z,964.69
2019-02-11T04:26:05.185Z,964.55
2019-02-11T04:27:05.004Z,964.69
2019-02-11T04:28:05.490Z,964.69
2019-02-11T04:29:09.782Z,964.80
2019-02-11T04:30:05.177Z,964.90
2019-02-11T04:31:05.400Z,964.80
2019-02-11T04:32:04.648Z,964.90
2019-02-11T04:33:04.747Z,964.88
2019-02-11T04:34:04.909Z,964.90
2019-02-11T04:35:05.008Z,964.80
2019-02-11T04:36:04.932Z,964.90
2019-02-11T04:37:05.266Z,964.90
2019-02-11T04:38:05.337Z,964.93
2019-02-11T04:39:05.527Z,965.07
2019-02-11T04:40:04.512Z,965.02
2019-02-11T04:41:04.606Z,965.02
2019-02-11T04:42:05.134Z,964.96
2019-02-11T04:43:05.252Z,964.96
2019-02-11T04:44:05.521Z,964.99
2019-02-11T04:45:04.546Z,965.21
2019-02-11T04:46:04.870Z,965.07
2019-02-11T04:47:04.791Z,965.24
2019-02-11T04:48:05.154Z,965.16
2019-02-11T04:49:04.585Z,965.08
2019-02-11T04:50:04.805Z,965.05
2019-02-11T04:51:05.117Z,965.16
2019-02-11T04:52:05.034Z,965.19
2019-02-11T04:53:05.066Z,965.22
2019-02-11T04:54:05.291Z,965.13
2019-02-11T04:55:04.843Z,965.27
2019-02-11T04:56:05.148Z,965.33
2019-02-11T04:57:04.837Z,965.19
2019-02-11T04:58:04.990Z,965.36
2019-02-11T04:59:05.107Z,965.27
2019-02-11T05:00:05.207Z,965.30
2019-02-11T05:01:05.482Z,965.30
2019-02-11T05:02:04.670Z,965.30
2019-02-11T05:03:05.118Z,965.27
2019-02-11T05:04:04.667Z,965.38
2019-02-11T05:05:04.683Z,965.33
2019-02-11T05:06:04.653Z,965.22
2019-02-11T05:07:05.055Z,965.36
2019-02-11T05:08:05.443Z,965.41
2019-02-11T05:09:04.645Z,965.47
2019-02-11T05:10:04.683Z,965.47
2019-02-11T05:11:04.846Z,965.55
2019-02-11T05:12:05.030Z,965.55
2019-02-11T05:13:05.253Z,965.55
2019-02-11T05:14:05.387Z,965.47
2019-02-11T05:15:04.467Z,965.50
2019-02-11T05:16:04.738Z,965.52
2019-02-11T05:17:04.793Z,965.52
2019-02-11T05:18:05.022Z,965.50
2019-02-11T05:19:05.008Z,965.62
2019-02-11T05:20:05.216Z,965.58
2019-02-11T05:21:04.805Z,965.60
2019-02-11T05:22:05.047Z,965.58
2019-02-11T05:23:05.106Z,965.63
2019-02-11T05:24:04.806Z,965.65
2019-02-11T05:25:05.553Z,965.68
2019-02-11T05:26:05.111Z,965.65
2019-02-11T05:27:05.145Z,965.74
2019-02-11T05:28:04.774Z,965.65
2019-02-11T05:29:05.048Z,965.74
2019-02-11T05:30:04.549Z,965.76
2019-02-11T05:31:04.703Z,965.74
2019-02-11T05:32:04.759Z,965.68
2019-02-11T05:33:10.565Z,965.76
2019-02-11T05:34:04.999Z,965.76
2019-02-11T05:35:05.104Z,965.88
2019-02-11T05:36:04.564Z,965.88
2019-02-11T05:37:04.696Z,965.82
2019-02-11T05:38:04.807Z,965.96
2019-02-11T05:39:05.393Z,965.88
2019-02-11T05:40:04.694Z,965.82
2019-02-11T05:41:05.095Z,965.93
2019-02-11T05:42:05.388Z,965.90
2019-02-11T05:43:04.540Z,965.88
2019-02-11T05:44:06.324Z,965.87
2019-02-11T05:45:05.397Z,965.99
2019-02-11T05:46:05.420Z,966.10
2019-02-11T05:47:05.413Z,965.96
2019-02-11T05:48:04.598Z,965.98
2019-02-11T05:49:04.768Z,966.04
2019-02-11T05:50:05.020Z,966.04
2019-02-11T05:51:05.128Z,965.96
2019-02-11T05:52:04.484Z,966.04
2019-02-11T05:53:04.860Z,966.15
2019-02-11T05:54:05.260Z,966.21
2019-02-11T05:55:05.354Z,966.18
2019-02-11T05:56:05.332Z,966.07
2019-02-11T05:57:04.492Z,966.37
2019-02-11T05:58:04.626Z,966.26
2019-02-11T05:59:04.888Z,966.18
2019-02-11T06:00:04.950Z,966.21
2019-02-11T06:01:05.058Z,966.29
2019-02-11T06:02:05.205Z,966.46
2019-02-11T06:03:05.417Z,966.29
2019-02-11T06:04:04.802Z,966.49
2019-02-11T06:05:04.840Z,966.40
2019-02-11T06:06:05.071Z,966.29
2019-02-11T06:07:05.242Z,966.40
2019-02-11T06:08:05.276Z,966.43
2019-02-11T06:09:05.421Z,966.57
2019-02-11T06:10:05.017Z,966.46
2019-02-11T06:11:05.243Z,966.43
2019-02-11T06:12:04.558Z,966.46
2019-02-11T06:13:04.972Z,966.57
2019-02-11T06:14:04.549Z,966.60
2019-02-11T06:15:05.271Z,966.68
2019-02-11T06:16:05.009Z,966.65
2019-02-11T06:17:05.411Z,966.68
2019-02-11T06:18:05.373Z,966.62
2019-02-11T06:19:04.866Z,966.71
2019-02-11T06:20:05.008Z,966.60
2019-02-11T06:21:05.231Z,966.71
2019-02-11T06:22:04.484Z,966.79
2019-02-11T06:23:04.677Z,966.82
2019-02-11T06:24:04.852Z,966.74
2019-02-11T06:25:04.858Z,966.90
2019-02-11T06:26:05.141Z,966.88
2019-02-11T06:27:05.164Z,966.79
2019-02-11T06:28:04.747Z,966.93
2019-02-11T06:29:05.024Z,966.93
2019-02-11T06:30:04.598Z,966.90
2019-02-11T06:31:05.360Z,966.96
2019-02-11T06:32:05.391Z,967.09
2019-02-11T06:33:04.942Z,966.96
2019-02-11T06:34:05.188Z,967.09
2019-02-11T06:35:05.260Z,966.99
2019-02-11T06:36:13.013Z,967.06
2019-02-11T06:37:04.738Z,967.17
2019-02-11T06:38:04.969Z,967.26
2019-02-11T06:39:05.224Z,967.01
2019-02-11T06:40:04.750Z,967.17
2019-02-11T06:41:09.986Z,967.26
2019-02-11T06:42:05.355Z,967.34
2019-02-11T06:43:04.667Z,967.39
2019-02-11T06:44:05.299Z,967.56
2019-02-11T06:45:13.627Z,967.45
2019-02-11T06:46:05.444Z,967.48
2019-02-11T06:47:05.398Z,967.47
2019-02-11T06:48:04.746Z,967.56
2019-02-11T06:49:04.902Z,967.58
2019-02-11T06:50:05.456Z,967.67
2019-02-11T06:51:04.884Z,967.58
2019-02-11T06:52:05.420Z,967.64
2019-02-11T06:53:05.370Z,967.78
2019-02-11T06:54:05.464Z,967.86
2019-02-11T06:55:04.543Z,967.84
2019-02-11T06:56:04.851Z,967.95
2019-02-11T06:57:05.072Z,967.84
2019-02-11T06:58:05.046Z,967.98
2019-02-11T06:59:04.655Z,967.98
2019-02-11T07:00:04.828Z,967.92
2019-02-11T07:01:04.867Z,967.83
2019-02-11T07:02:05.157Z,967.89
2019-02-11T07:03:04.772Z,967.86
2019-02-11T07:04:04.808Z,968.12
2019-02-11T07:05:04.972Z,968.09
2019-02-11T07:06:05.233Z,968.03
2019-02-11T07:07:05.340Z,968.14
2019-02-11T07:08:05.450Z,968.00
2019-02-11T07:09:04.863Z,968.03
2019-02-11T07:10:05.170Z,968.06
2019-02-11T07:11:05.205Z,968.25
2019-02-11T07:12:05.586Z,968.25
2019-02-11T07:13:04.734Z,968.22
2019-02-11T07:14:05.047Z,968.14
2019-02-11T07:15:05.445Z,968.17
2019-02-11T07:16:05.086Z,968.39
2019-02-11T07:17:04.599Z,968.31
2019-02-11T07:18:04.645Z,968.30
2019-02-11T07:19:04.907Z,968.39
2019-02-11T07:20:05.253Z,968.33
2019-02-11T07:21:05.308Z,968.36
2019-02-11T07:22:05.447Z,968.36
2019-02-11T07:23:05.128Z,968.33
2019-02-11T07:24:05.490Z,968.36
2019-02-11T07:25:04.820Z,968.44
2019-02-11T07:26:05.292Z,968.38
2019-02-11T07:27:04.590Z,968.41
2019-02-11T07:28:04.855Z,968.41
2019-02-11T07:29:10.565Z,968.41
2019-02-11T07:30:05.029Z,968.58
2019-02-11T07:31:05.177Z,968.58
2019-02-11T07:32:04.634Z,968.49
2019-02-11T07:33:04.820Z,968.52
2019-02-11T07:34:04.880Z,968.61
2019-02-11T07:35:05.217Z,968.69
2019-02-11T07:36:05.194Z,968.60
2019-02-11T07:37:04.879Z,968.73
2019-02-11T07:38:05.203Z,968.69
2019-02-11T07:39:05.239Z,968.76
2019-02-11T07:40:04.787Z,968.69
2019-02-11T07:41:05.115Z,968.76
2019-02-11T07:42:05.279Z,968.76
2019-02-11T07:43:05.359Z,968.84
2019-02-11T07:44:04.945Z,968.84
2019-02-11T07:45:05.269Z,968.79
2019-02-11T07:46:04.600Z,968.84
2019-02-11T07:47:04.769Z,968.96
2019-02-11T07:48:05.035Z,968.98
2019-02-11T07:49:05.079Z,968.76
2019-02-11T07:50:05.157Z,969.21
2019-02-11T07:51:04.741Z,968.87
2019-02-11T07:52:05.019Z,969.06
2019-02-11T07:53:04.526Z,969.12
2019-02-11T07:54:04.665Z,968.87
2019-02-11T07:55:05.363Z,968.96
2019-02-11T07:56:04.802Z,968.84
2019-02-11T07:57:04.889Z,968.98
2019-02-11T07:58:05.214Z,968.98
2019-02-11T07:59:04.901Z,969.09
2019-02-11T08:00:05.136Z,968.93
2019-02-11T08:01:05.193Z,969.04
2019-02-11T08:02:05.431Z,968.98
2019-02-11T08:03:05.165Z,969.09
2019-02-11T08:04:05.369Z,969.06
2019-02-11T08:05:05.378Z,969.17
2019-02-11T08:06:04.697Z,969.12
2019-02-11T08:07:05.475Z,969.20
2019-02-11T08:08:04.606Z,969.03
2019-02-11T08:09:05.156Z,969.20
2019-02-11T08:10:05.087Z,969.26
2019-02-11T08:11:04.651Z,969.26
2019-02-11T08:12:04.895Z,969.14
2019-02-11T08:13:04.892Z,969.31
2019-02-11T08:14:05.371Z,969.23
2019-02-11T08:15:04.936Z,969.26
2019-02-11T08:16:05.101Z,969.34
2019-02-11T08:17:05.640Z,969.37
2019-02-11T08:18:04.986Z,969.42
2019-02-11T08:19:05.438Z,969.48
2019-02-11T08:20:04.848Z,969.36
2019-02-11T08:21:05.001Z,969.50
2019-02-11T08:22:05.431Z,969.59
2019-02-11T08:23:13.791Z,969.56
2019-02-11T08:24:04.543Z,969.48
2019-02-11T08:25:05.110Z,969.64
2019-02-11T08:26:06.543Z,969.56
2019-02-11T08:27:05.208Z,969.62
2019-02-11T08:28:04.940Z,969.59
2019-02-11T08:29:10.374Z,969.75
2019-02-11T08:30:04.794Z,969.53
2019-02-11T08:31:05.334Z,969.59
2019-02-11T08:32:04.955Z,969.59
2019-02-11T08:33:05.445Z,969.56
2019-02-11T08:34:05.041Z,969.67
2019-02-11T08:35:05.466Z,969.67
2019-02-11T08:36:04.719Z,969.50
2019-02-11T08:37:05.276Z,969.89
2019-02-11T08:38:05.319Z,969.84
2019-02-11T08:39:04.739Z,969.67
2019-02-11T08:40:05.495Z,969.72
2019-02-11T08:41:04.656Z,969.83
2019-02-11T08:42:04.907Z,969.83
2019-02-11T08:43:04.919Z,969.83
2019-02-11T08:44:05.179Z,969.96
2019-02-11T08:45:04.985Z,969.99
2019-02-11T08:46:05.069Z,969.82
2019-02-11T08:47:05.335Z,970.04
2019-02-11T08:48:05.401Z,970.04
2019-02-11T08:49:05.121Z,970.04
2019-02-11T08:50:04.639Z,970.09
2019-02-11T08:51:05.103Z,970.01
2019-02-11T08:52:05.323Z,969.90
2019-02-11T08:53:05.282Z,969.98
2019-02-11T08:54:04.759Z,970.03
2019-02-11T08:55:04.624Z,969.97
2019-02-11T08:56:04.937Z,970.03
2019-02-11T08:57:05.313Z,970.08
2019-02-11T08:58:04.834Z,970.05
2019-02-11T08:59:04.867Z,970.13
2019-02-11T09:00:05.101Z,970.19
2019-02-11T09:01:05.173Z,970.19
2019-02-11T09:02:04.724Z,970.27
2019-02-11T09:03:05.177Z,970.24
2019-02-11T09:04:04.514Z,970.24
2019-02-11T09:05:04.944Z,970.24
2019-02-11T09:06:04.910Z,970.32
2019-02-11T09:07:04.551Z,970.30
2019-02-11T09:08:04.664Z,970.24
2019-02-11T09:09:05.128Z,970.38
2019-02-11T09:10:05.217Z,970.41
2019-02-11T09:11:05.439Z,970.32
2019-02-11T09:12:04.828Z,970.40
2019-02-11T09:13:04.884Z,970.42
2019-02-11T09:14:05.490Z,970.50
2019-02-11T09:15:05.069Z,970.53
2019-02-11T09:16:05.196Z,970.53
2019-02-11T09:17:10.751Z,970.42
2019-02-11T09:18:05.031Z,970.70
2019-02-11T09:19:04.721Z,970.47
2019-02-11T09:20:05.345Z,970.47
2019-02-11T09:21:05.347Z,970.47
2019-02-11T09:22:08.022Z,970.61
2019-02-11T09:23:04.625Z,970.53
2019-02-11T09:24:04.942Z,970.72
2019-02-11T09:25:04.890Z,970.72
2019-02-11T09:26:04.644Z,970.64
2019-02-11T09:27:04.696Z,970.70
2019-02-11T09:28:05.119Z,970.67
2019-02-11T09:29:10.307Z,970.72
2019-02-11T09:30:04.707Z,970.81
2019-02-11T09:31:05.053Z,970.70
2019-02-11T09:32:04.949Z,970.87
2019-02-11T09:33:04.669Z,970.81
2019-02-11T09:34:05.186Z,970.90
2019-02-11T09:35:05.236Z,970.90
2019-02-11T09:36:04.606Z,971.01
2019-02-11T09:37:05.080Z,970.90
2019-02-11T09:38:04.672Z,970.93
2019-02-11T09:39:05.275Z,970.93
2019-02-11T09:40:05.376Z,971.13
2019-02-11T09:41:05.480Z,971.02
2019-02-11T09:42:04.614Z,971.02
2019-02-11T09:43:05.193Z,971.16
2019-02-11T09:44:05.267Z,971.07
2019-02-11T09:45:04.913Z,971.13
2019-02-11T09:46:05.147Z,971.10
2019-02-11T09:47:05.116Z,971.01
2019-02-11T09:48:05.311Z,970.93
2019-02-11T09:49:05.461Z,971.18
2019-02-11T09:50:05.117Z,971.04
2019-02-11T09:51:05.453Z,971.07
2019-02-11T09:52:04.486Z,970.99
2019-02-11T09:53:04.773Z,971.07
2019-02-11T09:54:05.184Z,971.07
2019-02-11T09:55:04.727Z,970.90
2019-02-11T09:56:04.930Z,971.10
2019-02-11T09:57:05.253Z,971.04
2019-02-11T09:58:05.421Z,971.10
2019-02-11T09:59:04.810Z,971.07
2019-02-11T10:00:04.910Z,970.93
2019-02-11T10:01:05.481Z,970.90
2019-02-11T10:02:04.699Z,970.89
2019-02-11T10:03:05.362Z,971.00
2019-02-11T10:04:05.344Z,971.03
2019-02-11T10:05:05.118Z,970.97
2019-02-11T10:06:09.864Z,971.02
2019-02-11T10:07:05.386Z,970.91
2019-02-11T10:08:04.871Z,970.93
2019-02-11T10:09:05.327Z,970.93
2019-02-11T10:10:05.556Z,971.04
2019-02-11T10:11:04.588Z,970.90
2019-02-11T10:12:04.750Z,971.06
2019-02-11T10:13:04.706Z,971.17
2019-02-11T10:14:04.845Z,971.12
2019-02-11T10:15:05.031Z,971.11
2019-02-11T10:16:12.909Z,971.08
2019-02-11T10:17:04.580Z,971.11
2019-02-11T10:18:04.853Z,971.19
2019-02-11T10:19:04.762Z,971.17
2019-02-11T10:20:04.950Z,971.22
2019-02-11T10:21:04.968Z,971.17
2019-02-11T10:22:05.303Z,971.11
2019-02-11T10:23:04.891Z,971.31
2019-02-11T10:24:05.330Z,971.25
2019-02-11T10:25:04.866Z,971.20
2019-02-11T10:26:05.190Z,971.14
2019-02-11T10:27:05.461Z,971.48
2019-02-11T10:28:04.998Z,971.34
2019-02-11T10:29:05.172Z,971.43
2019-02-11T10:30:05.246Z,971.23
2019-02-11T10:31:05.434Z,971.35
2019-02-11T10:32:04.828Z,971.57
2019-02-11T10:33:04.910Z,971.27
2019-02-11T10:34:05.326Z,971.52
2019-02-11T10:35:04.712Z,971.46
2019-02-11T10:36:05.195Z,971.49
2019-02-11T10:37:04.869Z,971.47
2019-02-11T10:38:04.886Z,971.52
2019-02-11T10:39:05.233Z,971.50
2019-02-11T10:40:10.424Z,971.55
2019-02-11T10:41:05.481Z,971.66
2019-02-11T10:42:04.515Z,971.55
2019-02-11T10:43:05.050Z,971.64
2019-02-11T10:44:05.202Z,971.67
2019-02-11T10:45:05.488Z,971.61
2019-02-11T10:46:04.884Z,971.64
2019-02-11T10:47:04.894Z,971.67
2019-02-11T10:48:05.137Z,971.81
2019-02-11T10:49:05.519Z,971.61
2019-02-11T10:50:05.380Z,971.61
2019-02-11T10:51:04.650Z,971.67
2019-02-11T10:52:04.840Z,971.58
2019-02-11T10:53:04.576Z,971.83
2019-02-11T10:54:04.883Z,971.91
2019-02-11T10:55:05.484Z,971.81
2019-02-11T10:56:05.534Z,971.83
2019-02-11T10:57:05.097Z,971.86
2019-02-11T10:58:04.600Z,971.83
2019-02-11T10:59:04.773Z,971.86
2019-02-11T11:00:04.949Z,971.97
2019-02-11T11:01:05.250Z,971.94
2019-02-11T11:02:05.419Z,971.91
2019-02-11T11:03:04.535Z,971.94
2019-02-11T11:04:05.265Z,971.94
2019-02-11T11:05:05.385Z,971.91
2019-02-11T11:06:05.423Z,972.02
2019-02-11T11:07:04.922Z,971.97
2019-02-11T11:08:05.103Z,972.19
2019-02-11T11:09:05.387Z,972.22
2019-02-11T11:10:04.552Z,972.02
2019-02-11T11:11:04.649Z,972.19
2019-02-11T11:12:04.734Z,972.19
2019-02-11T11:13:05.138Z,972.16
2019-02-11T11:14:04.693Z,972.14
2019-02-11T11:15:04.966Z,972.19
2019-02-11T11:16:05.477Z,972.28
2019-02-11T11:17:04.758Z,972.25
2019-02-11T11:18:05.138Z,972.28
2019-02-11T11:19:04.640Z,972.30
2019-02-11T11:20:04.838Z,972.19
2019-02-11T11:21:05.082Z,972.16
2019-02-11T11:22:05.553Z,972.19
2019-02-11T11:23:04.632Z,972.27
2019-02-11T11:24:04.827Z,972.39
2019-02-11T11:25:05.229Z,972.47
2019-02-11T11:26:04.550Z,972.52
2019-02-11T11:27:05.191Z,972.27
2019-02-11T11:28:05.198Z,972.27
2019-02-11T11:29:10.418Z,972.38
2019-02-11T11:30:04.819Z,972.41
2019-02-11T11:31:05.051Z,972.44
2019-02-11T11:32:04.730Z,972.38
2019-02-11T11:33:04.765Z,972.52
2019-02-11T11:34:04.958Z,972.47
2019-02-11T11:35:05.074Z,972.49
2019-02-11T11:36:05.215Z,972.44
2019-02-11T11:37:05.339Z,972.57
2019-02-11T11:38:04.551Z,972.57
2019-02-11T11:39:05.098Z,972.52
2019-02-11T11:40:05.118Z,972.47
2019-02-11T11:41:04.693Z,972.66
2019-02-11T11:42:05.051Z,972.57
2019-02-11T11:43:04.656Z,972.74
2019-02-11T11:44:04.769Z,972.57
2019-02-11T11:45:05.328Z,972.63
2019-02-11T11:46:04.572Z,972.74
2019-02-11T11:47:04.707Z,972.74
2019-02-11T11:48:05.175Z,972.69
2019-02-11T11:49:05.383Z,972.63
2019-02-11T11:50:05.498Z,972.74
2019-02-11T11:51:04.638Z,972.77
2019-02-11T11:52:05.368Z,972.66
2019-02-11T11:53:05.386Z,972.77
2019-02-11T11:54:05.395Z,972.80
2019-02-11T11:55:04.582Z,972.77
2019-02-11T11:56:04.718Z,972.80
2019-02-11T11:57:05.047Z,972.77
2019-02-11T11:58:04.626Z,972.82
2019-02-11T11:59:05.404Z,972.77
2019-02-11T12:00:04.570Z,972.74
2019-02-11T12:01:05.281Z,972.94
2019-02-11T12:02:05.283Z,972.91
2019-02-11T12:03:06.366Z,972.88
2019-02-11T12:04:07.150Z,972.99
2019-02-11T12:05:04.819Z,972.88
2019-02-11T12:06:05.612Z,972.79
2019-02-11T12:07:05.309Z,972.90
2019-02-11T12:08:05.151Z,972.85
2019-02-11T12:09:05.316Z,972.93
2019-02-11T12:10:05.456Z,972.79
2019-02-11T12:11:05.225Z,972.96
2019-02-11T12:12:05.424Z,973.10
2019-02-11T12:13:23.440Z,972.96
2019-02-11T12:14:05.272Z,972.96
2019-02-11T12:15:05.537Z,972.93
2019-02-11T12:16:05.122Z,973.10
2019-02-11T12:17:05.166Z,973.02
2019-02-11T12:18:04.918Z,973.16
2019-02-11T12:19:05.154Z,973.21
2019-02-11T12:20:04.518Z,973.01
2019-02-11T12:21:05.410Z,973.21
2019-02-11T12:22:05.539Z,973.21
2019-02-11T12:23:04.967Z,973.24
2019-02-11T12:24:04.504Z,972.99
2019-02-11T12:25:04.772Z,973.07
2019-02-11T12:26:05.021Z,973.30
2019-02-11T12:27:05.114Z,973.24
2019-02-11T12:28:05.351Z,973.30